Lublin, Wisconsin
Current Conditions -  °F | °C
As of 8:35 AM on Wednesday 22 Oct 2014 (Local Time) from KMDZ Reporting Station
Clear Clear  
Wind Chill: 29°   Ceiling: Unl
Heat Index: 34°   Visibility: 10mi
Dew Point: 32°   Wind: 5mph
Humidity: 94%   Direction: 150°SSE
Pressure: 30.32"   Gusts: NA
Location:  45.08°N, 90.72°W
Report Text: KMDZ 221335Z AUTO 15004KT 10SM CLR 01/00 A3032 RMK AO2 T00090000
Loading
Personal Weather Stations






























Interactive Weather Map
Tropical Storm Tracking
New forecast layout! Learn more

10-Day Weather Forecast

Advertisements
Track Severe Weather on mobile